International Virtual Aviation Organisation

Russian Federation and Kazakhstan MCD

 
ULMM 041200Z 20003MPS 150V230 9999 BKN016 M03/M06 Q1018 R13/690050 NOSIG RMK QFE757
QNH:(hPa/inHg/mmHg)1018 / 30.06 / 764
QFE:(hPa/inHg/mmHg)1008 / 29.77 / 756
Temperature-3
Dew Point-6
Visibility> 10000
Weather
Cloud CoverBKN (1600);
Transition Height900 m./3300 ft.
Transition LevelFL40
SQUAWK